Palo, Minnesota
Current Conditions -  °F | °C
As of 4:11 PM on Wednesday 28 Jan 2015 (Local Time) from KEVM Reporting Station
Overcast Overcast  
Wind Chill: 28°   Ceiling: 1000
Heat Index: 28°   Visibility: 7mi
Dew Point: 25°   Wind: 3mph
Humidity: 86%   Direction: 190°S
Pressure: 29.81"   Gusts: NA
Location:  47.4622°N, 92.1946°W
Report Text: KEVM 282211Z AUTO 19003KT 7SM OVC010 M02/M04 A2981 RMK AO2
Loading
Personal Weather Stations






























Interactive Weather Map New forecast layout! Learn more

10-Day Weather Forecast

Advertisements
Track Severe Weather on mobile